• Join FlightAware (Why Join?)
  • Login
  • US Flag 
12:18AM EDT


 

Airport Tracker/Info


-or-


 

Live Flight TrackerFlight Track Log ✈ DAL268 ✈ 11-Jun-2013 ✈ KSFO - KJFK

Flight Track Log - Related Links

Times and Time Zones

All times are in EDT time to prevent confusion due to time zone crossing. See the DAL268 flight status page for this flight to view local times or setup timezone preferences in your user account.

Time Position Orientation Groundspeed Altitude Reporting Facility
EDT Latitude Longitude Course Direction KTS MPH feet Rate Location/Type
02:23PM 37.6140 -122.3810 199° South 18 21  Level FlightAware
02:24PM 37.6130 -122.3780 113° Southeast 16 18  Level FlightAware
02:24PM 37.6120 -122.3770 142° Southeast 32 37  Level FlightAware
02:25PM 37.6120 -122.3760 90° East 33 38  Level FlightAware
02:25PM 37.6110 -122.3760 180° South 31 36  Level FlightAware
02:25PM 37.6100 -122.3770 218° Southwest 26 30  Level FlightAware
02:26PM 37.6090 -122.3770 180° South 23 26  Level FlightAware
02:26PM 37.6080 -122.3780 218° Southwest 22 25  Level FlightAware
02:27PM 37.6070 -122.3790 218° Southwest 21 24  Level FlightAware
02:27PM 37.6060 -122.3800 218° Southwest 10 12  Level FlightAware
02:30PM 37.7057 -122.0690 63° Northeast  Level FlightAware Approximate
02:31PM 37.7602 -121.9262 65° Northeast  Level FlightAware Approximate
02:32PM 37.8066 -121.7802 67° East  Level FlightAware Approximate
02:33PM 37.8574 -121.6353 58° Northeast  Level FlightAware Approximate
02:34PM 37.8993 -121.4862 72° East  Level FlightAware Approximate
02:35PM 37.9564 -121.3450 69° East  Level FlightAware Approximate
02:36PM 38.0003 -121.1960 69° East  Level FlightAware Approximate
02:37PM 38.0472 -121.0486 63° Northeast  Level FlightAware Approximate
02:38PM 38.0904 -120.9005 70° East  Level FlightAware Approximate
02:39PM 38.1222 -120.7467 70° East  Level FlightAware Approximate
02:40PM 38.1641 -120.5964 70° East  Level FlightAware Approximate
02:41PM 38.2027 -120.4449 81° East  Level FlightAware Approximate
02:42PM 38.2276 -120.2888 73° East  Level FlightAware Approximate
02:43PM 38.2648 -120.1363 73° East  Level FlightAware Approximate
02:44PM 38.3018 -119.9837 73° East  Level FlightAware Approximate
02:45PM 38.3386 -119.8308 73° East  Level FlightAware Approximate
02:46PM 37.6070 -122.3810 360° North 10 12  Level FlightAware
02:46PM 37.6090 -122.3800 22° Northeast 58 67 480 Level FlightAware
02:47PM 37.6230 -122.3700 29° Northeast 900 Level FlightAware
02:47PM 37.6344 -122.3620 29° Northeast 169 194 700 2,820 Climbing FlightAware ADS-B
02:47PM 37.6371 -122.3600 30° Northeast 170 196 900 2,400 Climbing FlightAware ADS-B
02:47PM 37.6407 -122.3560 41° Northeast 174 200 1,100 2,460 Climbing FlightAware ADS-B
02:47PM 37.6440 -122.3520 44° Northeast 177 204 1,400 1,860 Climbing FlightAware ADS-B
02:48PM 37.6537 -122.3390 47° Northeast 199 229 1,800 1,320 Climbing FlightAware ADS-B
02:48PM 37.6642 -122.3250 47° Northeast 218 251 2,100 1,620 Climbing FlightAware ADS-B
02:48PM 37.6747 -122.3120 44° Northeast 233 268 2,600 1,860 Climbing FlightAware ADS-B
02:48PM 37.6871 -122.2970 44° Northeast 252 290 3,000 1,500 Climbing FlightAware ADS-B
02:49PM 37.7013 -122.2790 45° Northeast 275 316 3,400 2,100 Climbing FlightAware ADS-B
02:49PM 37.7153 -122.2620 44° Northeast 279 321 4,100 3,000 Climbing FlightAware ADS-B
02:49PM 37.7400 -122.2310 45° Northeast 284 327 5,500 2,880 Climbing FlightAware ADS-B
02:50PM 37.7567 -122.2100 45° Northeast 286 329 6,300 2,760 Climbing FlightAware ADS-B
02:50PM 37.7642 -122.2000 47° Northeast 289 333 6,700 2,520 Climbing FlightAware ADS-B
02:50PM 37.7813 -122.1780 45° Northeast 294 338 7,400 2,520 Climbing FlightAware ADS-B
02:50PM 37.7961 -122.1590 45° Northeast 300 345 8,100 2,460 Climbing FlightAware ADS-B
02:51PM 37.8117 -122.1390 45° Northeast 304 350 8,700 2,280 Climbing FlightAware ADS-B
02:51PM 37.8270 -122.1200 44° Northeast 308 354 9,300 2,400 Climbing FlightAware ADS-B
02:51PM 37.8436 -122.0990 45° Northeast 310 357 10,000 1,740 Climbing FlightAware ADS-B
02:52PM 37.8749 -122.0580 46° Northeast 337 388 10,700 1,200 Climbing FlightAware ADS-B
02:52PM 37.9101 -122.0130 45° Northeast 370 426 11,200 1,140 Climbing FlightAware ADS-B
02:53PM 37.9488 -121.9620 46° Northeast 395 455 11,900 1,560 Climbing FlightAware ADS-B
02:53PM 37.9666 -121.9390 46° Northeast 398 458 12,400 2,160 Climbing FlightAware ADS-B
02:53PM 37.9800 -121.9170 52° Northeast 401 461 12,800 2,160 Climbing FlightAware ADS-B
02:53PM 37.9923 -121.8880 62° Northeast 404 465 13,300 2,220 Climbing FlightAware ADS-B
02:53PM 37.9989 -121.8660 69° East 405 466 13,700 2,520 Climbing FlightAware ADS-B
02:54PM 38.0028 -121.8440 77° East 407 468 14,100 2,040 Climbing FlightAware ADS-B
02:54PM 38.0131 -121.7340 83° East 413 475 15,600 1,920 Climbing FlightAware ADS-B
02:55PM 38.0196 -121.6590 84° East 428 493 16,600 1,800 Climbing FlightAware ADS-B
02:55PM 38.0221 -121.6310 84° East 433 498 16,900 1,560 Climbing FlightAware ADS-B
02:55PM 38.0252 -121.6100 79° East 436 502 17,100 2,040 Climbing FlightAware ADS-B
02:55PM 38.0344 -121.5730 72° East 439 505 17,700 2,040 Climbing FlightAware ADS-B
02:56PM 38.0560 -121.4980 70° East 446 513 18,700 1,680 Climbing FlightAware ADS-B
02:56PM 38.0725 -121.4370 71° East 451 519 19,300 1,740 Climbing FlightAware ADS-B
02:57PM 38.0873 -121.3580 77° East 456 525 20,300 1,860 Climbing FlightAware ADS-B
02:57PM 38.1025 -121.2690 78° East 462 532 21,300 1,740 Climbing FlightAware ADS-B
02:58PM 38.1169 -121.1890 77° East 466 536 22,200 1,620 Climbing FlightAware ADS-B
02:58PM 38.1325 -121.1060 77° East 473 544 23,000 1,500 Climbing FlightAware ADS-B
02:59PM 38.1539 -120.9950 76° East 481 554 24,000 1,380 Climbing FlightAware ADS-B
03:00PM 38.1870 -120.8030 78° East 494 568 25,600 1,320 Climbing FlightAware
03:01PM 38.2060 -120.6950 77° East 500 575 26,400 1,200 Climbing FlightAware
03:02PM 38.2270 -120.5720 78° East 508 585 27,200 1,080 Climbing FlightAware
03:02PM 38.2470 -120.4560 78° East 515 593 27,900 1,020 Climbing FlightAware
03:03PM 38.2690 -120.3230 78° East 519 597 28,700 1,260 Climbing FlightAware
03:04PM 38.2890 -120.2070 78° East 517 595 29,700 1,320 Climbing FlightAware
03:04PM 38.3090 -120.0860 78° East 519 597 30,500 1,260 Climbing FlightAware
03:05PM 38.3310 -119.9530 78° East 517 595 31,500 1,140 Climbing FlightAware
03:06PM 38.3570 -119.7920 78° East 523 602 32,400 840 Climbing FlightAware
03:07PM 38.3850 -119.6220 78° East 529 609 33,100 840 Climbing FlightAware
03:08PM 38.4040 -119.4980 79° East 530 610 33,800 960 Climbing FlightAware
03:08PM 38.4260 -119.3650 78° East 532 612 34,500 900 Climbing FlightAware
03:09PM 38.4430 -119.2530 79° East 534 615 35,000 300 Climbing FlightAware
03:10PM 38.4700 -119.0930 78° East 534 615 35,000  Level FlightAware
03:10PM 38.4810 -119.0300 77° East 534 615 35,000  Level FlightAware
03:11PM 38.5030 -118.8930 78° East 534 615 35,000  Level FlightAware
03:12PM 38.5190 -118.7990 78° East 534 615 35,000  Level FlightAware
03:12PM 38.5350 -118.7020 78° East 534 615 35,000  Level FlightAware
03:14PM 38.4890 -118.9580 257° West 531 611 35,000  Level FlightAware
03:14PM 38.5030 -118.8670 79° East 531 611 35,000  Level FlightAware
03:15PM 38.5200 -118.7590 79° East 531 611 35,000  Level FlightAware
03:16PM 38.5410 -118.6200 79° East 531 611 35,000  Level FlightAware
03:16PM 38.5550 -118.5260 79° East 531 611 35,000  Level FlightAware
03:17PM 38.5710 -118.4240 79° East 531 611 35,000  Level FlightAware
03:18PM 38.5900 -118.2950 79° East 531 611 35,000  Level FlightAware
03:18PM 38.6040 -118.2010 79° East 531 611 35,000  Level FlightAware
03:19PM 38.6230 -118.0750 79° East 531 611 35,000  Level FlightAware
03:20PM 38.6460 -117.9280 79° East 531 611 35,000  Level FlightAware
03:21PM 38.6600 -117.8360 79° East 531 611 35,000  Level FlightAware
03:21PM 38.6800 -117.7050 79° East 531 611 35,000  Level FlightAware
03:22PM 38.6940 -117.6100 79° East 531 611 35,000  Level FlightAware
03:23PM 38.7130 -117.4840 79° East 531 611 35,000  Level FlightAware
03:23PM 38.8308 -116.5856 79° East 531 611 35,000  Level Salt Lake Center
03:24PM 38.8564 -116.3989 80° East 531 611 35,000  Level Salt Lake Center
03:25PM 38.8697 -116.2958 81° East 528 608 35,000  Level Oakland Center
03:25PM 38.8808 -116.2128 80° East 529 609 35,000  Level Salt Lake Center
03:27PM 38.9047 -116.0258 81° East 531 611 35,000  Level Salt Lake Center
03:28PM 38.9283 -115.8400 81° East 528 608 35,000  Level Salt Lake Center
03:29PM 38.9514 -115.6536 81° East 527 606 35,000  Level Salt Lake Center
03:30PM 38.9747 -115.4672 81° East 528 608 35,000  Level Salt Lake Center
03:31PM 38.9997 -115.2772 80° East 533 613 35,000  Level Salt Lake Center
03:32PM 39.0264 -115.0547 81° East 528 608 35,000  Level Salt Lake Center
03:33PM 39.0481 -114.8689 81° East 527 606 35,000  Level Salt Lake Center
03:34PM 39.0697 -114.6825 81° East 526 605 35,000  Level Salt Lake Center
03:35PM 39.0919 -114.4953 81° East 527 606 35,000  Level Salt Lake Center
03:36PM 39.1131 -114.3086 82° East 528 608 35,000  Level Salt Lake Center
03:37PM 39.1344 -114.1219 82° East 527 606 35,000  Level Salt Lake Center
03:38PM 39.1556 -113.9347 82° East 528 608 35,000  Level Salt Lake Center
03:39PM 39.1789 -113.7128 82° East 520 598 35,000  Level Salt Lake Center
03:40PM 39.1992 -113.5253 82° East 525 604 35,000  Level Salt Lake Center
03:41PM 39.2183 -113.3392 82° East 523 602 35,000  Level Salt Lake Center
03:42PM 39.2378 -113.1533 82° East 523 602 35,000  Level Salt Lake Center
03:43PM 39.2569 -112.9678 82° East 522 601 35,000  Level Salt Lake Center
03:44PM 39.2758 -112.7822 82° East 521 600 35,000  Level Salt Lake Center
03:45PM 39.2956 -112.5906 82° East 516 594 35,000  Level Salt Lake Center
03:46PM 39.3417 -112.4172 71° East 518 596 35,000  Level Salt Lake Center
03:47PM 39.3997 -112.2447 66° East 523 602 35,000  Level Salt Lake Center
03:53PM 39.7530 -111.2640 66° East 506 582 35,100  Climbing FlightAware
03:54PM 39.8080 -111.1090 65° Northeast 506 582 35,000 -120 Descending FlightAware
03:54PM 39.8440 -111.0060 65° Northeast 506 582 35,000  Level FlightAware
03:55PM 39.9050 -110.8330 65° Northeast 504 580 35,000  Level FlightAware
03:56PM 39.9420 -110.7270 65° Northeast 505 581 35,000  Level FlightAware
03:57PM 39.9830 -110.6100 65° Northeast 504 580 35,000  Level FlightAware
03:57PM 40.0230 -110.4940 66° East 504 580 35,000  Level FlightAware
03:58PM 40.0630 -110.3780 66° East 504 580 35,000  Level FlightAware
03:59PM 40.1050 -110.2540 66° East 505 581 35,000  Level FlightAware
04:00PM 40.1390 -110.1520 66° East 506 582 35,000  Level FlightAware
04:00PM 40.1660 -110.0150 75° East 511 588 35,000  Level FlightAware
04:01PM 40.1860 -109.8690 80° East 513 590 35,000 60 Level FlightAware
04:02PM 40.2040 -109.7440 79° East 516 594 35,100  Climbing FlightAware
04:02PM 40.2200 -109.6250 80° East 519 597 35,000 -120 Descending FlightAware
04:03PM 40.2390 -109.4880 80° East 520 598 35,000  Level FlightAware
04:04PM 40.2580 -109.3520 80° East 521 600 35,000  Level FlightAware
04:04PM 40.2740 -109.2390 79° East 522 601 35,000  Level FlightAware
04:05PM 40.2900 -109.1150 80° East 521 600 35,000  Level FlightAware
04:06PM 40.3090 -108.9800 80° East 520 598 35,000  Level FlightAware
04:06PM 40.3250 -108.8600 80° East 520 598 35,000  Level FlightAware
04:07PM 40.3430 -108.7220 80° East 520 598 35,000  Level FlightAware
04:08PM 40.3580 -108.6070 80° East 519 597 35,000  Level FlightAware
04:09PM 40.3760 -108.4650 81° East 518 596 35,000  Level FlightAware
04:09PM 40.3940 -108.3280 80° East 517 595 35,000  Level FlightAware
04:10PM 40.4160 -108.1580 80° East 514 592 35,000  Level FlightAware
04:11PM 40.4340 -108.0160 81° East 511 588 35,000  Level FlightAware
04:12PM 40.4480 -107.8970 81° East 508 585 35,000  Level FlightAware
04:12PM 40.4640 -107.7690 81° East 505 581 35,000  Level FlightAware
04:13PM 40.4810 -107.6300 81° East 504 580 35,000  Level FlightAware
04:14PM 40.4940 -107.5240 81° East 503 579 35,000  Level FlightAware
04:15PM 40.5110 -107.3800 81° East 504 580 35,000  Level FlightAware
04:15PM 40.5360 -107.2490 76° East 511 588 35,000  Level FlightAware
04:16PM 40.5600 -107.1640 70° East 511 588 35,000  Level FlightAware
04:17PM 40.6070 -106.9990 69° East 510 587 35,000  Level FlightAware
04:17PM 40.6400 -106.8840 69° East 509 586 35,000  Level FlightAware
04:18PM 40.6700 -106.7760 70° East 505 581 35,000  Level FlightAware
04:19PM 40.7020 -106.6630 69° East 503 579 35,000  Level FlightAware
04:19PM 40.7410 -106.5220 70° East 502 578 35,000  Level FlightAware
04:20PM 40.7770 -106.3950 69° East 502 578 35,000  Level FlightAware
04:21PM 40.8060 -106.2860 71° East 502 578 35,000  Level FlightAware
04:22PM 40.8430 -106.1540 70° East 499 574 35,000  Level FlightAware
04:22PM 40.8740 -106.0410 70° East 496 571 35,000  Level FlightAware
04:23PM 40.9080 -105.9130 71° East 497 572 35,000 60 Level FlightAware
04:24PM 40.9380 -105.8050 70° East 494 568 35,100  Climbing FlightAware
04:24PM 40.9710 -105.6820 70° East 499 574 35,000 -120 Descending FlightAware
04:25PM 40.9960 -105.5860 71° East 499 574 35,000  Level FlightAware
04:26PM 41.0340 -105.3890 76° East 498 573 35,000  Level FlightAware
04:27PM 41.0560 -105.2750 76° East 500 575 35,000  Level FlightAware
04:27PM 41.0820 -105.1450 75° East 500 575 35,000  Level FlightAware
04:28PM 41.0930 -105.0890 75° East 503 579 35,000  Level FlightAware ADS-B
04:28PM 41.1108 -105.0000 75° East 505 581 35,000  Level FlightAware ADS-B
04:29PM 41.1289 -104.9100 75° East 507 583 35,000  Level FlightAware ADS-B
04:29PM 41.1514 -104.7950 75° East 510 587 35,000  Level FlightAware ADS-B
04:30PM 41.1700 -104.7000 75° East 512 589 35,000  Level FlightAware ADS-B
04:30PM 41.1873 -104.6070 76° East 512 589 35,000  Level FlightAware ADS-B
04:31PM 41.2042 -104.5160 76° East 512 589 35,000  Level FlightAware ADS-B
04:31PM 41.2211 -104.4240 76° East 513 590 35,000  Level FlightAware ADS-B
04:32PM 41.2382 -104.3320 76° East 513 590 35,000  Level FlightAware ADS-B
04:32PM 41.2552 -104.2390 76° East 514 592 35,000  Level FlightAware ADS-B
04:33PM 41.2645 -104.1870 77° East 514 592 35,000  Level FlightAware ADS-B
04:33PM 41.2686 -104.1560 80° East 510 587 35,000  Level FlightAware ADS-B
04:33PM 41.2715 -104.1230 83° East 508 585 35,000  Level FlightAware ADS-B
04:34PM 41.2764 -104.0300 86° East 508 585 35,000  Level FlightAware ADS-B
04:34PM 41.2804 -103.9340 87° East 509 586 35,000  Level FlightAware ADS-B
04:35PM 41.2851 -103.8400 86° East 512 589 35,000  Level FlightAware ADS-B
04:35PM 41.2900 -103.7450 86° East 515 593 35,000  Level FlightAware ADS-B
04:36PM 41.2947 -103.6450 86° East 518 596 35,000 60 Level FlightAware ADS-B
04:36PM 41.2987 -103.5460 87° East 520 598 35,100  Climbing FlightAware ADS-B
04:36PM 41.3012 -103.4810 87° East 523 602 35,000 -240 Descending FlightAware ADS-B
04:37PM 41.3040 -103.4490 83° East 528 608 35,000  Level FlightAware ADS-B
04:37PM 41.3144 -103.3810 78° East 532 612 35,000  Level FlightAware ADS-B
04:37PM 41.3314 -103.2850 77° East 533 613 35,000  Level FlightAware ADS-B
04:38PM 41.3485 -103.1900 76° East 533 613 35,000  Level FlightAware ADS-B
04:39PM 41.3784 -103.0130 77° East 532 612 35,000  Level FlightAware ADS-B
04:39PM 41.3949 -102.9120 78° East 530 610 35,000  Level FlightAware ADS-B
04:40PM 41.4132 -102.8010 78° East 530 610 35,000  Level FlightAware ADS-B
04:41PM 41.4357 -102.6760 76° East 528 608 35,000  Level FlightAware ADS-B
04:41PM 41.4528 -102.5810 76° East 526 605 35,000  Level FlightAware ADS-B
04:42PM 41.4711 -102.4790 77° East 522 601 35,000  Level FlightAware ADS-B
04:42PM 41.4879 -102.3830 77° East 517 595 35,000  Level FlightAware ADS-B
04:43PM 41.5048 -102.2870 77° East 513 590 35,000  Level FlightAware ADS-B
04:43PM 41.5214 -102.1940 77° East 511 588 35,000  Level FlightAware ADS-B
04:44PM 41.5391 -102.0930 77° East 508 585 35,000  Level FlightAware ADS-B
04:44PM 41.5554 -102.0000 77° East 505 581 35,000  Level FlightAware ADS-B
04:45PM 41.5845 -101.8300 77° East 504 580 35,000  Level FlightAware ADS-B
04:46PM 41.6002 -101.7380 77° East 507 583 35,000  Level FlightAware ADS-B
04:46PM 41.6164 -101.6420 77° East 508 585 35,000  Level FlightAware ADS-B
04:47PM 41.6469 -101.4620 77° East 508 585 35,000  Level FlightAware ADS-B
04:48PM 41.6589 -101.3908 77° East 507 583 35,000  Level Denver Center
04:49PM 41.6939 -101.1844 77° East 508 585 35,000  Level Denver Center
04:50PM 41.7236 -101.0050 77° East 511 588 35,000  Level Denver Center
04:51PM 41.7572 -100.7969 78° East 510 587 35,000  Level Denver Center
04:52PM 41.7853 -100.6206 78° East 506 582 35,000  Level Denver Center
04:53PM 41.8136 -100.4403 78° East 513 590 35,000  Level Denver Center
04:54PM 41.8467 -100.2306 78° East 513 590 35,000  Level Denver Center
04:55PM 41.8744 -100.0528 78° East 510 587 35,000  Level Denver Center
04:56PM 41.9064 -99.8467 78° East 504 580 35,000  Level Denver Center
04:57PM 41.9331 -99.6683 79° East 503 579 35,000  Level Denver Center
04:58PM 41.9506 -99.5592 78° East 502 578 35,000  Level Minneapolis Center
04:59PM 41.9769 -99.3761 79° East 498 573 35,000  Level Minneapolis Center
04:59PM 41.9881 -99.3025 78° East 498 573 35,000  Level Denver Center
05:00PM 42.0144 -99.1208 79° East 494 568 35,000  Level Denver Center
05:01PM 42.0308 -99.0144 78° East 490 564 35,000  Level Minneapolis Center
05:02PM 42.0569 -98.8328 79° East 492 566 35,000  Level Minneapolis Center
05:03PM 42.0883 -98.6133 79° East 495 570 35,000  Level Minneapolis Center
05:04PM 42.1136 -98.4322 79° East 493 567 35,000  Level Minneapolis Center
05:05PM 42.1392 -98.2506 79° East 493 567 35,000  Level Minneapolis Center
05:06PM 42.1636 -98.0664 80° East 497 572 35,000  Level Minneapolis Center
05:07PM 42.1892 -97.8803 79° East 502 578 35,000  Level Minneapolis Center
05:08PM 42.2156 -97.6903 79° East 505 581 35,000  Level Minneapolis Center
05:13PM 42.3450 -96.6650 79° East 499 574 35,000  Level FlightAware
05:14PM 42.3600 -96.5470 80° East 500 575 35,000  Level FlightAware
05:15PM 42.3730 -96.4500 80° East 500 575 35,000  Level FlightAware
05:15PM 42.3860 -96.3450 80° East 500 575 35,000  Level FlightAware
05:16PM 42.4030 -96.2190 80° East 500 575 35,000  Level FlightAware
05:17PM 42.4150 -96.1220 80° East 500 575 35,000  Level FlightAware
05:18PM 42.4310 -96.0020 80° East 500 575 35,000  Level FlightAware
05:18PM 42.4430 -95.9070 80° East 500 575 35,000  Level FlightAware
05:19PM 42.4600 -95.7810 80° East 500 575 35,000  Level FlightAware
05:20PM 42.4720 -95.6870 80° East 500 575 35,000  Level FlightAware
05:20PM 42.4890 -95.5530 80° East 500 575 35,000  Level FlightAware
05:21PM 42.5010 -95.4580 80° East 500 575 35,000  Level FlightAware
05:22PM 42.5180 -95.3290 80° East 500 575 35,000  Level FlightAware
05:22PM 42.5400 -94.9770 85° East 504 580 35,000  Level FlightAware
05:23PM 42.5580 -94.8100 82° East 504 580 35,000  Level FlightAware
05:24PM 42.5690 -94.7190 81° East 504 580 35,000  Level FlightAware
05:25PM 42.5840 -94.5920 81° East 504 580 35,000  Level FlightAware
05:25PM 42.5950 -94.4910 82° East 504 580 35,000  Level FlightAware
05:26PM 42.6150 -94.3260 81° East 504 580 35,000  Level FlightAware
05:27PM 42.6140 -94.1050 90° East 504 580 35,000  Level FlightAware
05:28PM 42.6130 -93.9690 91° East 505 581 35,000  Level FlightAware
05:28PM 42.6130 -93.8450 90° East 505 581 35,000  Level FlightAware
05:29PM 42.6140 -93.7140 89° East 505 581 35,000  Level FlightAware
05:30PM 42.6150 -93.5620 89° East 505 581 35,000  Level FlightAware
05:31PM 42.6160 -93.4400 89° East 505 581 35,000  Level FlightAware
05:31PM 42.6170 -93.2960 89° East 505 581 35,000  Level FlightAware
05:32PM 42.6170 -93.1690 90° East 505 581 35,000  Level FlightAware
05:33PM 42.6170 -93.0490 90° East 505 581 35,000  Level FlightAware
05:33PM 42.6160 -92.9090 91° East 504 580 35,000  Level FlightAware
05:34PM 42.6160 -92.7740 90° East 503 579 35,000 540 Level FlightAware
05:35PM 42.6160 -92.6400 90° East 502 578 35,800 900 Climbing FlightAware
05:36PM 42.6180 -92.5130 89° East 500 575 36,300 900 Climbing FlightAware
05:36PM 42.6200 -92.3970 89° East 497 572 37,000 480 Climbing FlightAware
05:37PM 42.6220 -92.2480 89° East 489 563 37,000  Level FlightAware
05:38PM 42.6250 -92.1160 88° East 490 564 37,000  Level FlightAware
05:38PM 42.6260 -91.9860 89° East 494 568 37,000 60 Level FlightAware
05:39PM 42.6280 -91.8540 89° East 497 572 37,100  Climbing FlightAware
05:40PM 42.6300 -91.7300 89° East 501 577 37,000 -120 Descending FlightAware
05:40PM 42.6310 -91.5970 89° East 503 579 37,000  Level FlightAware
05:41PM 42.6320 -91.4630 89° East 504 580 37,000  Level FlightAware
05:42PM 42.6340 -91.3250 89° East 505 581 37,000  Level FlightAware
05:43PM 42.6350 -91.1920 89° East 506 582 37,000  Level FlightAware
05:43PM 42.6360 -91.0770 89° East 507 583 37,000  Level FlightAware
05:44PM 42.6360 -90.9320 90° East 507 583 37,000  Level FlightAware
05:45PM 42.6370 -90.8070 89° East 507 583 37,000  Level FlightAware
05:45PM 42.6370 -90.6830 90° East 506 582 37,000 60 Level FlightAware
05:46PM 42.6380 -90.5280 89° East 505 581 37,100  Climbing FlightAware
05:47PM 42.6380 -90.4150 90° East 504 580 37,000 -120 Descending FlightAware
05:47PM 42.6380 -90.2710 90° East 504 580 37,000  Level FlightAware
05:48PM 42.6380 -90.1410 90° East 504 580 37,000  Level FlightAware
05:49PM 42.6370 -90.0160 91° East 504 580 37,000  Level FlightAware
05:50PM 42.6370 -89.8700 90° East 505 581 37,000  Level FlightAware
05:50PM 42.6360 -89.7300 91° East 505 581 37,000  Level FlightAware
05:51PM 42.6350 -89.6060 91° East 505 581 37,000  Level FlightAware
05:52PM 42.6340 -89.4720 91° East 505 581 37,000  Level FlightAware
05:52PM 42.6330 -89.3450 91° East 505 581 37,000  Level FlightAware
05:53PM 42.6320 -89.2050 91° East 506 582 37,000  Level FlightAware
05:54PM 42.6310 -89.0730 91° East 507 583 37,000  Level FlightAware
05:54PM 42.6290 -88.9470 91° East 507 583 37,000  Level FlightAware
05:55PM 42.6270 -88.8060 91° East 507 583 37,000 60 Level FlightAware
05:56PM 42.6250 -88.6700 91° East 507 583 37,100  Climbing FlightAware
05:57PM 42.6230 -88.5420 91° East 509 586 37,000 -120 Descending FlightAware
05:57PM 42.6210 -88.4070 91° East 509 586 37,000  Level FlightAware
05:58PM 42.6190 -88.2760 91° East 509 586 37,000  Level FlightAware
05:59PM 42.6160 -88.1360 92° East 510 587 37,000  Level FlightAware
05:59PM 42.6130 -87.9940 92° East 511 588 37,000  Level FlightAware
06:00PM 42.6110 -87.8830 91° East 512 589 37,000  Level FlightAware
06:01PM 42.6080 -87.7480 92° East 511 588 37,000  Level FlightAware
06:01PM 42.6040 -87.6020 92° East 511 588 37,000  Level FlightAware
06:02PM 42.6010 -87.4590 92° East 514 592 37,000  Level FlightAware
06:03PM 42.5970 -87.3300 92° East 517 595 37,000  Level FlightAware
06:04PM 42.5940 -87.1880 92° East 519 597 37,000  Level FlightAware
06:04PM 42.5900 -87.0780 93° East 521 600 37,000  Level FlightAware
06:05PM 42.5860 -86.9200 92° East 524 603 37,000  Level FlightAware
06:06PM 42.5810 -86.7810 93° East 526 605 37,000  Level FlightAware
06:06PM 42.5770 -86.6400 92° East 528 608 37,000  Level FlightAware
06:07PM 42.5720 -86.5060 93° East 529 609 37,000  Level FlightAware
06:08PM 42.5680 -86.3690 92° East 530 610 37,000  Level FlightAware
06:08PM 42.5630 -86.2360 93° East 530 610 37,000  Level FlightAware
06:09PM 42.5550 -86.0310 93° East 530 610 37,000  Level FlightAware
06:10PM 42.5520 -85.9570 93° East 530 610 37,000  Level FlightAware
06:11PM 42.5450 -85.7640 93° East 527 606 37,000  Level FlightAware
06:12PM 42.5390 -85.6220 93° East 523 602 37,000  Level FlightAware
06:12PM 42.5330 -85.4900 93° East 519 597 37,000  Level FlightAware
06:13PM 42.5270 -85.3430 93° East 515 593 37,000  Level FlightAware
06:14PM 42.5210 -85.2150 94° East 513 590 37,000 60 Level FlightAware
06:14PM 42.5150 -85.0880 94° East 513 590 37,100  Climbing FlightAware
06:15PM 42.5090 -84.9570 94° East 513 590 37,000 -120 Descending FlightAware
06:16PM 42.5020 -84.8090 94° East 513 590 37,000  Level FlightAware
06:16PM 42.4950 -84.6770 94° East 514 592 37,000  Level FlightAware
06:17PM 42.4880 -84.5430 94° East 515 593 37,000  Level FlightAware
06:18PM 42.4810 -84.4010 94° East 516 594 37,000  Level FlightAware
06:19PM 42.4740 -84.2710 94° East 516 594 37,000  Level FlightAware
06:19PM 42.4670 -84.1440 94° East 516 594 37,000  Level FlightAware
06:20PM 42.4590 -84.0020 94° East 515 593 37,000  Level FlightAware
06:21PM 42.4530 -83.8880 94° East 513 590 37,000  Level FlightAware
06:21PM 42.4440 -83.7400 95° East 511 588 37,000  Level FlightAware
06:22PM 42.4370 -83.6090 94° East 509 586 37,000  Level FlightAware
06:23PM 42.4280 -83.4740 95° East 508 585 37,000  Level FlightAware
06:23PM 42.4200 -83.3350 94° East 506 582 37,000  Level FlightAware
06:24PM 42.4120 -83.2140 95° East 506 582 37,000  Level FlightAware
06:25PM 42.4040 -83.0770 94° East 506 582 37,000  Level FlightAware
06:25PM 42.3960 -82.9600 95° East 507 583 37,000  Level FlightAware
06:26PM 42.3870 -82.8180 95° East 508 585 37,000  Level FlightAware
06:27PM 42.3780 -82.6930 96° East 509 586 37,000  Level FlightAware
06:28PM 42.3720 -82.5390 93° East 506 582 37,000  Level FlightAware
06:28PM 42.3680 -82.4200 93° East 508 585 37,000  Level FlightAware
06:29PM 42.3630 -82.2860 93° East 510 587 37,000 60 Level FlightAware
06:30PM 42.3570 -82.1400 93° East 512 589 37,100  Climbing FlightAware
06:31PM 42.3500 -81.9860 93° East 516 594 37,000  Descending FlightAware
06:31PM 42.3450 -81.8630 93° East 516 594 37,100  Climbing FlightAware
06:32PM 42.3380 -81.7270 94° East 516 594 37,000 -120 Descending FlightAware
06:33PM 42.3300 -81.5500 93° East 515 593 37,000  Level FlightAware
06:34PM 42.3230 -81.4130 94° East 514 592 37,000  Level FlightAware
06:34PM 42.3150 -81.2480 94° East 513 590 37,000  Level FlightAware
06:35PM 42.3090 -81.1200 94° East 513 590 37,000  Level FlightAware
06:36PM 42.3010 -80.9730 94° East 513 590 37,000  Level FlightAware
06:36PM 42.2940 -80.8400 94° East 513 590 37,000  Level FlightAware
06:37PM 42.2870 -80.7060 94° East 514 592 37,000  Level FlightAware
06:38PM 42.2830 -80.6280 94° East 515 593 37,000  Level FlightAware
06:38PM 42.2740 -80.4780 95° East 516 594 37,000 -180 Level FlightAware
06:39PM 42.2670 -80.3500 94° East 519 597 36,800 -420 Descending FlightAware
06:40PM 42.2560 -80.1680 95° East 525 604 36,400 -540 Descending FlightAware
06:41PM 42.2490 -80.0450 94° East 523 602 36,100 -300 Descending FlightAware
06:41PM 42.2390 -79.9000 95° East 520 598 36,000 -120 Descending FlightAware
06:42PM 42.2230 -79.7720 100° East 527 606 36,000  Level FlightAware
06:43PM 42.2010 -79.6380 102° East 531 611 36,000  Level FlightAware
06:43PM 42.1800 -79.5180 103° East 532 612 36,000  Level FlightAware
06:44PM 42.1530 -79.3650 103° East 533 613 36,000  Level FlightAware
06:45PM 42.1290 -79.2360 104° East 533 613 36,000  Level FlightAware
06:46PM 42.1040 -79.1020 104° East 532 612 36,000  Level FlightAware
06:46PM 42.0790 -78.9640 104° East 528 608 36,000  Level FlightAware
06:47PM 42.0620 -78.8770 105° East 529 609 36,000  Level FlightAware
06:48PM 42.0290 -78.7010 104° East 521 600 36,000  Level FlightAware
06:48PM 42.0020 -78.5600 104° East 517 595 36,000  Level FlightAware
06:49PM 41.9780 -78.4310 104° East 514 592 36,000  Level FlightAware
06:50PM 41.9530 -78.3030 105° East 512 589 36,000  Level FlightAware
06:50PM 41.9270 -78.1690 105° East 510 587 36,000  Level FlightAware
06:51PM 41.9010 -78.0360 105° East 510 587 36,000  Level FlightAware
06:52PM 41.8780 -77.9200 105° East 511 588 36,000  Level FlightAware
06:53PM 41.8460 -77.7810 107° East 514 592 36,000  Level FlightAware
06:53PM 41.8140 -77.6580 109° East 514 592 36,000  Level FlightAware
06:54PM 41.7820 -77.5370 109° East 515 593 36,000  Level FlightAware
06:55PM 41.7460 -77.4030 110° East 516 594 36,000  Level FlightAware
06:55PM 41.7140 -77.2830 110° East 519 597 36,000  Level FlightAware
06:56PM 41.6810 -77.1610 110° East 520 598 36,000  Level FlightAware
06:57PM 41.6510 -77.0500 110° East 522 601 36,000  Level FlightAware
06:57PM 41.6160 -76.9190 110° East 524 603 36,000  Level FlightAware
06:58PM 41.5810 -76.7910 110° East 526 605 36,000  Level FlightAware
06:59PM 41.5440 -76.6560 110° East 528 608 36,000  Level FlightAware
06:59PM 41.5100 -76.5330 110° East 530 610 36,000  Level FlightAware
07:00PM 41.4730 -76.3980 110° East 529 609 36,000  Level FlightAware
07:01PM 41.4380 -76.2730 110° East 531 611 36,000 -420 Level FlightAware
07:02PM 41.3960 -76.1260 111° Southeast 527 606 35,400 -1,380 Descending FlightAware
07:02PM 41.3630 -76.0070 110° East 530 610 34,000 -2,400 Descending FlightAware
07:03PM 41.3280 -75.8830 111° Southeast 532 612 32,200 -2,940 Descending FlightAware
07:04PM 41.2900 -75.7510 111° Southeast 536 617 29,900 -3,540 Descending FlightAware
07:04PM 41.2490 -75.6170 112° Southeast 542 624 27,200 -3,300 Descending FlightAware
07:05PM 41.2120 -75.5070 114° Southeast 535 616 25,500 -2,880 Descending FlightAware
07:06PM 41.1690 -75.3770 114° Southeast 535 616 23,400 -1,800 Descending FlightAware
07:06PM 41.1300 -75.2640 115° Southeast 522 601 23,100 -300 Descending FlightAware
07:07PM 41.0890 -75.1420 114° Southeast 519 597 23,000 -120 Descending FlightAware
07:08PM 41.0470 -75.0180 114° Southeast 523 602 23,000  Level FlightAware
07:09PM 41.0060 -74.8890 113° Southeast 523 602 23,000 -180 Level FlightAware
07:09PM 40.9850 -74.7700 103° East 507 583 22,800 -960 Descending FlightAware
07:10PM 40.9690 -74.6300 99° East 500 575 21,700 -1,500 Descending FlightAware
07:11PM 40.9590 -74.5290 97° East 490 564 20,800 -1,620 Descending FlightAware
07:11PM 40.9450 -74.4060 99° East 479 551 19,700 -1,200 Descending FlightAware
07:12PM 40.9300 -74.2660 98° East 463 533 19,000 -480 Descending FlightAware
07:13PM 40.9150 -74.1600 101° East 410 472 19,000  Level FlightAware
07:13PM 40.9020 -74.1239 115° Southeast 435 501 19,000  Level FlightAware ADS-B
07:13PM 40.8898 -74.1038 129° Southeast 386 444 19,000  Level FlightAware ADS-B
07:13PM 40.8676 -74.0809 142° Southeast 372 428 19,000 -600 Level FlightAware ADS-B
07:14PM 40.8430 -74.0665 156° South 362 417 18,700 -1,860 Descending FlightAware ADS-B
07:14PM 40.7903 -74.0414 160° South 354 407 17,500 -2,340 Descending FlightAware ADS-B
07:15PM 40.7470 -74.0210 160° South 347 399 16,300 -2,400 Descending FlightAware
07:16PM 40.6750 -73.9950 165° South 317 365 14,400 -2,100 Descending FlightAware
07:16PM 40.6210 -73.9950 180° South 322 371 13,300 -840 Descending FlightAware
07:17PM 40.5520 -73.9990 183° South 312 359 13,300  Level FlightAware
07:18PM 40.5040 -74.0030 184° South 303 349 13,300 -600 Level FlightAware
07:18PM 40.4750 -73.9990 174° South 310 357 12,800 -2,700 Descending FlightAware
07:19PM 40.4220 -73.9650 154° Southeast 322 371 10,900 -2,580 Descending FlightAware
07:19PM 40.3850 -73.9390 152° Southeast 316 364 9,800 -2,220 Descending FlightAware
07:20PM 40.3460 -73.9120 152° Southeast 309 356 8,800 -2,280 Descending FlightAware
07:20PM 40.3110 -73.8890 153° Southeast 304 350 7,700 -2,280 Descending FlightAware
07:20PM 40.2790 -73.8590 144° Southeast 305 351 6,700 -1,740 Descending FlightAware
07:21PM 40.2610 -73.8120 117° Southeast 306 352 6,100 -1,260 Descending FlightAware
07:21PM 40.2470 -73.7740 116° Southeast 308 354 5,600 -1,320 Descending FlightAware
07:22PM 40.2380 -73.7510 117° Southeast 307 353 5,300 -1,200 Descending FlightAware
07:22PM 40.2270 -73.7050 107° East 300 345 4,800 -1,020 Descending FlightAware
07:22PM 40.2340 -73.6760 72° East 290 334 4,500 -960 Descending FlightAware
07:23PM 40.2490 -73.6560 45° Northeast 284 327 4,300 -480 Descending FlightAware
07:23PM 40.2630 -73.6440 33° Northeast 280 322 4,300  Level FlightAware
07:23PM 40.2960 -73.6160 33° Northeast 281 323 4,300  Level FlightAware
07:24PM 40.3190 -73.5970 32° Northeast 281 323 4,300  Level FlightAware
07:24PM 40.3420 -73.5780 32° Northeast 281 323 4,300  Level FlightAware
07:24PM 40.3710 -73.5540 32° Northeast 283 326 4,300  Level FlightAware
07:25PM 40.4030 -73.5290 31° Northeast 279 321 4,300  Level FlightAware
07:25PM 40.4360 -73.5100 24° Northeast 276 318 4,300  Level FlightAware
07:26PM 40.4680 -73.4910 24° Northeast 273 314 4,300  Level FlightAware
07:26PM 40.5040 -73.4690 25° Northeast 275 316 4,300  Level FlightAware
07:26PM 40.5160 -73.4620 24° Northeast 275 316 4,300  Level FlightAware
07:27PM 40.5510 -73.4410 25° Northeast 271 312 4,300  Level FlightAware
07:27PM 40.5690 -73.4310 23° Northeast 271 312 4,300  Level FlightAware
07:28PM 40.6000 -73.4130 24° Northeast 273 314 4,300  Level FlightAware
07:28PM 40.6150 -73.4050 22° Northeast 267 307 4,300  Level FlightAware
07:28PM 40.6310 -73.4020 North 247 284 4,300  Level FlightAware
07:29PM 40.6640 -73.4000 North 231 266 4,300  Level FlightAware
07:29PM 40.6930 -73.3990 North 226 260 4,300  Level FlightAware
07:29PM 40.7160 -73.3980 North 224 258 4,300 -240 Level FlightAware
07:30PM 40.7620 -73.4280 334° Northwest 191 220 4,000 -600 Descending FlightAware
07:31PM 40.7740 -73.4570 299° West 184 212 3,500 -900 Descending FlightAware
07:31PM 40.7850 -73.4850 297° West 185 213 3,200 -300 Descending FlightAware
07:32PM 40.7880 -73.5000 285° West 185 213 3,300 -180 Climbing FlightAware
07:32PM 40.7850 -73.5300 262° West 189 217 3,100 -780 Descending FlightAware
07:32PM 40.7810 -73.5550 258° West 188 216 2,700 -960 Descending FlightAware
07:33PM 40.7770 -73.5930 262° West 191 220 2,300 -660 Descending FlightAware
07:33PM 40.7750 -73.6130 262° West 187 215 2,200  Descending FlightAware
07:34PM 40.7690 -73.6410 254° West 169 194 2,300 120 Climbing FlightAware
07:34PM 40.7630 -73.6540 239° Southwest 168 193 2,300  Level FlightAware
07:34PM 40.7460 -73.6730 220° Southwest 178 205 2,300 -240 Level FlightAware
07:35PM 40.7210 -73.6950 214° Southwest 165 190 2,000 -660 Descending FlightAware
07:36PM 40.6930 -73.7170 211° Southwest 143 165 1,400 -1,080 Descending FlightAware
07:36PM 40.6770 -73.7300 212° Southwest 149 171 1,000 -780 Descending FlightAware
07:37PM 40.6610 -73.7420 210° Southwest 149 171 700 -780 Descending FlightAware
07:37PM 40.6440 -73.7560 212° Southwest 148 170 300 -900 Descending FlightAware
07:38PM 40.6320 -73.7660 212° Southwest 68 78 -660 Descending FlightAware
07:38PM 40.6300 -73.7680 217° Southwest 27 31  Level FlightAware
07:38PM 40.6290 -73.7690 217° Southwest 16 18  Level FlightAware
07:39PM 40.6310 -73.7700 339° North 17 20  Level FlightAware
07:39PM 40.6320 -73.7690 37° Northeast 19 22  Level FlightAware